sensor_id;sensor_type;location;lat;lon;timestamp;temperature;humidity
41344;DHT22;27089;50.022;7.604;2023-05-10T00:01:36;12.80;99.90
41344;DHT22;27089;50.022;7.604;2023-05-10T00:04:03;12.80;99.90
41344;DHT22;27089;50.022;7.604;2023-05-10T00:06:30;12.80;99.90
41344;DHT22;27089;50.022;7.604;2023-05-10T00:08:57;12.80;99.90
41344;DHT22;27089;50.022;7.604;2023-05-10T00:11:24;12.80;99.90
41344;DHT22;27089;50.022;7.604;2023-05-10T00:13:52;12.80;99.90
41344;DHT22;27089;50.022;7.604;2023-05-10T00:16:20;12.80;99.90
41344;DHT22;27089;50.022;7.604;2023-05-10T00:18:46;12.80;99.90
41344;DHT22;27089;50.022;7.604;2023-05-10T00:21:14;12.80;99.90
41344;DHT22;27089;50.022;7.604;2023-05-10T00:23:41;12.80;99.90
41344;DHT22;27089;50.022;7.604;2023-05-10T00:26:08;12.70;99.90
41344;DHT22;27089;50.022;7.604;2023-05-10T00:28:35;12.70;99.90
41344;DHT22;27089;50.022;7.604;2023-05-10T00:31:03;12.70;99.90
41344;DHT22;27089;50.022;7.604;2023-05-10T00:33:30;12.70;99.90
41344;DHT22;27089;50.022;7.604;2023-05-10T00:35:57;12.70;99.90
41344;DHT22;27089;50.022;7.604;2023-05-10T00:38:24;12.70;99.90
41344;DHT22;27089;50.022;7.604;2023-05-10T00:40:51;12.70;99.90
41344;DHT22;27089;50.022;7.604;2023-05-10T00:43:18;12.70;99.90
41344;DHT22;27089;50.022;7.604;2023-05-10T00:45:45;12.70;99.90
41344;DHT22;27089;50.022;7.604;2023-05-10T00:48:14;12.80;99.90
41344;DHT22;27089;50.022;7.604;2023-05-10T00:50:41;12.70;99.90
41344;DHT22;27089;50.022;7.604;2023-05-10T00:53:08;12.70;99.90
41344;DHT22;27089;50.022;7.604;2023-05-10T00:55:36;12.70;99.90
41344;DHT22;27089;50.022;7.604;2023-05-10T00:58:03;12.70;99.90
41344;DHT22;27089;50.022;7.604;2023-05-10T01:00:30;12.70;99.90
41344;DHT22;27089;50.022;7.604;2023-05-10T01:02:58;12.70;99.90
41344;DHT22;27089;50.022;7.604;2023-05-10T01:05:28;12.60;99.90
41344;DHT22;27089;50.022;7.604;2023-05-10T01:07:56;12.70;99.90
41344;DHT22;27089;50.022;7.604;2023-05-10T01:10:23;12.70;99.90
41344;DHT22;27089;50.022;7.604;2023-05-10T01:12:50;12.70;99.90
41344;DHT22;27089;50.022;7.604;2023-05-10T01:15:18;12.70;99.90
41344;DHT22;27089;50.022;7.604;2023-05-10T01:17:47;12.60;99.90
41344;DHT22;27089;50.022;7.604;2023-05-10T01:20:15;12.60;99.90
41344;DHT22;27089;50.022;7.604;2023-05-10T01:23:13;12.60;99.90
41344;DHT22;27089;50.022;7.604;2023-05-10T01:29:11;12.70;99.90
41344;DHT22;27089;50.022;7.604;2023-05-10T01:34:35;12.70;99.90
41344;DHT22;27089;50.022;7.604;2023-05-10T01:37:09;12.70;99.90
41344;DHT22;27089;50.022;7.604;2023-05-10T01:39:44;12.70;99.90
41344;DHT22;27089;50.022;7.604;2023-05-10T01:42:17;12.70;99.90
41344;DHT22;27089;50.022;7.604;2023-05-10T01:44:51;12.60;99.90
41344;DHT22;27089;50.022;7.604;2023-05-10T01:47:27;12.70;99.90
41344;DHT22;27089;50.022;7.604;2023-05-10T01:50:01;12.70;99.90
41344;DHT22;27089;50.022;7.604;2023-05-10T01:52:33;12.60;99.90
41344;DHT22;27089;50.022;7.604;2023-05-10T01:55:02;12.70;99.90
41344;DHT22;27089;50.022;7.604;2023-05-10T01:57:34;12.70;99.90
41344;DHT22;27089;50.022;7.604;2023-05-10T02:00:02;12.70;99.90
41344;DHT22;27089;50.022;7.604;2023-05-10T02:02:30;12.70;99.90
41344;DHT22;27089;50.022;7.604;2023-05-10T02:05:03;12.70;99.90
41344;DHT22;27089;50.022;7.604;2023-05-10T02:07:32;12.70;99.90
41344;DHT22;27089;50.022;7.604;2023-05-10T02:10:02;12.70;99.90
41344;DHT22;27089;50.022;7.604;2023-05-10T02:12:30;12.70;99.90
41344;DHT22;27089;50.022;7.604;2023-05-10T02:14:59;12.70;99.90
41344;DHT22;27089;50.022;7.604;2023-05-10T02:17:29;12.60;99.90
41344;DHT22;27089;50.022;7.604;2023-05-10T02:19:58;12.60;99.90
41344;DHT22;27089;50.022;7.604;2023-05-10T02:22:28;12.60;99.90
41344;DHT22;27089;50.022;7.604;2023-05-10T02:24:56;12.60;99.90
41344;DHT22;27089;50.022;7.604;2023-05-10T02:27:25;12.60;99.90
41344;DHT22;27089;50.022;7.604;2023-05-10T02:29:53;12.60;99.90
41344;DHT22;27089;50.022;7.604;2023-05-10T02:32:21;12.60;99.90
41344;DHT22;27089;50.022;7.604;2023-05-10T02:34:49;12.60;99.90
41344;DHT22;27089;50.022;7.604;2023-05-10T02:37:19;12.60;99.90
41344;DHT22;27089;50.022;7.604;2023-05-10T02:39:48;12.60;99.90
41344;DHT22;27089;50.022;7.604;2023-05-10T02:42:17;12.60;99.90
41344;DHT22;27089;50.022;7.604;2023-05-10T02:44:48;12.60;99.90
41344;DHT22;27089;50.022;7.604;2023-05-10T02:47:15;12.50;99.90
41344;DHT22;27089;50.022;7.604;2023-05-10T02:49:42;12.50;99.90
41344;DHT22;27089;50.022;7.604;2023-05-10T02:52:10;12.50;99.90
41344;DHT22;27089;50.022;7.604;2023-05-10T02:54:41;12.50;99.90
41344;DHT22;27089;50.022;7.604;2023-05-10T02:57:16;12.50;99.90
41344;DHT22;27089;50.022;7.604;2023-05-10T02:59:44;12.50;99.90
41344;DHT22;27089;50.022;7.604;2023-05-10T03:02:12;12.50;99.90
41344;DHT22;27089;50.022;7.604;2023-05-10T03:04:39;12.50;99.90
41344;DHT22;27089;50.022;7.604;2023-05-10T03:07:07;12.50;99.90
41344;DHT22;27089;50.022;7.604;2023-05-10T03:09:34;12.50;99.90
41344;DHT22;27089;50.022;7.604;2023-05-10T03:12:06;12.50;99.90
41344;DHT22;27089;50.022;7.604;2023-05-10T03:14:45;12.50;99.90
41344;DHT22;27089;50.022;7.604;2023-05-10T03:17:19;12.50;99.90
41344;DHT22;27089;50.022;7.604;2023-05-10T03:19:53;12.50;99.90
41344;DHT22;27089;50.022;7.604;2023-05-10T03:22:24;12.50;99.90
41344;DHT22;27089;50.022;7.604;2023-05-10T03:24:54;12.50;99.90
41344;DHT22;27089;50.022;7.604;2023-05-10T03:27:23;12.50;99.90
41344;DHT22;27089;50.022;7.604;2023-05-10T03:29:52;12.40;99.90
41344;DHT22;27089;50.022;7.604;2023-05-10T03:32:20;12.50;99.90
41344;DHT22;27089;50.022;7.604;2023-05-10T03:34:47;12.40;99.90
41344;DHT22;27089;50.022;7.604;2023-05-10T03:37:14;12.50;99.90
41344;DHT22;27089;50.022;7.604;2023-05-10T03:39:41;12.50;99.90
41344;DHT22;27089;50.022;7.604;2023-05-10T03:42:08;12.40;99.90
41344;DHT22;27089;50.022;7.604;2023-05-10T03:44:37;12.40;99.90
41344;DHT22;27089;50.022;7.604;2023-05-10T03:47:05;12.40;99.90
41344;DHT22;27089;50.022;7.604;2023-05-10T03:49:32;12.40;99.90
41344;DHT22;27089;50.022;7.604;2023-05-10T03:51:59;12.40;99.90
41344;DHT22;27089;50.022;7.604;2023-05-10T03:54:26;12.40;99.90
41344;DHT22;27089;50.022;7.604;2023-05-10T03:56:53;12.40;99.90
41344;DHT22;27089;50.022;7.604;2023-05-10T03:59:20;12.40;99.90
41344;DHT22;27089;50.022;7.604;2023-05-10T04:01:47;12.40;99.90
41344;DHT22;27089;50.022;7.604;2023-05-10T04:04:15;12.40;99.90
41344;DHT22;27089;50.022;7.604;2023-05-10T04:06:43;12.30;99.90
41344;DHT22;27089;50.022;7.604;2023-05-10T04:09:10;12.30;99.90
41344;DHT22;27089;50.022;7.604;2023-05-10T04:11:37;12.30;99.90
41344;DHT22;27089;50.022;7.604;2023-05-10T04:14:04;12.30;99.90
41344;DHT22;27089;50.022;7.604;2023-05-10T04:16:31;12.30;99.90
41344;DHT22;27089;50.022;7.604;2023-05-10T04:18:58;12.30;99.90
41344;DHT22;27089;50.022;7.604;2023-05-10T04:21:26;12.30;99.90
41344;DHT22;27089;50.022;7.604;2023-05-10T04:23:53;12.30;99.90
41344;DHT22;27089;50.022;7.604;2023-05-10T04:26:20;12.40;99.90
41344;DHT22;27089;50.022;7.604;2023-05-10T04:28:47;12.40;99.90
41344;DHT22;27089;50.022;7.604;2023-05-10T04:31:14;12.40;99.90
41344;DHT22;27089;50.022;7.604;2023-05-10T04:33:41;12.40;99.90
41344;DHT22;27089;50.022;7.604;2023-05-10T04:36:08;12.40;99.90
41344;DHT22;27089;50.022;7.604;2023-05-10T04:38:37;12.40;99.90
41344;DHT22;27089;50.022;7.604;2023-05-10T04:41:04;12.50;99.90
41344;DHT22;27089;50.022;7.604;2023-05-10T04:43:31;12.50;99.90
41344;DHT22;27089;50.022;7.604;2023-05-10T04:45:58;12.50;99.90
41344;DHT22;27089;50.022;7.604;2023-05-10T04:48:25;12.50;99.90
41344;DHT22;27089;50.022;7.604;2023-05-10T04:50:53;12.50;99.90
41344;DHT22;27089;50.022;7.604;2023-05-10T04:53:19;12.50;99.90
41344;DHT22;27089;50.022;7.604;2023-05-10T04:55:48;12.50;99.90
41344;DHT22;27089;50.022;7.604;2023-05-10T04:58:15;12.50;99.90
41344;DHT22;27089;50.022;7.604;2023-05-10T05:00:42;12.50;99.90
41344;DHT22;27089;50.022;7.604;2023-05-10T05:03:09;12.60;99.90
41344;DHT22;27089;50.022;7.604;2023-05-10T05:05:36;12.60;99.90
41344;DHT22;27089;50.022;7.604;2023-05-10T05:08:04;12.70;99.90
41344;DHT22;27089;50.022;7.604;2023-05-10T05:10:31;12.90;99.90
41344;DHT22;27089;50.022;7.604;2023-05-10T05:12:59;13.10;99.90
41344;DHT22;27089;50.022;7.604;2023-05-10T05:15:26;13.30;99.90
41344;DHT22;27089;50.022;7.604;2023-05-10T05:17:53;13.50;99.90
41344;DHT22;27089;50.022;7.604;2023-05-10T05:20:20;13.70;99.90
41344;DHT22;27089;50.022;7.604;2023-05-10T05:22:47;13.80;99.90
41344;DHT22;27089;50.022;7.604;2023-05-10T05:25:14;14.00;99.90
41344;DHT22;27089;50.022;7.604;2023-05-10T05:27:42;14.10;99.90
41344;DHT22;27089;50.022;7.604;2023-05-10T05:30:11;14.30;99.90
41344;DHT22;27089;50.022;7.604;2023-05-10T05:32:38;14.60;99.90
41344;DHT22;27089;50.022;7.604;2023-05-10T05:35:05;15.00;99.90
41344;DHT22;27089;50.022;7.604;2023-05-10T05:37:32;15.60;99.90
41344;DHT22;27089;50.022;7.604;2023-05-10T05:39:59;15.80;99.90
41344;DHT22;27089;50.022;7.604;2023-05-10T05:42:27;16.40;99.90
41344;DHT22;27089;50.022;7.604;2023-05-10T05:44:54;16.50;99.90
41344;DHT22;27089;50.022;7.604;2023-05-10T05:47:22;16.70;99.90
41344;DHT22;27089;50.022;7.604;2023-05-10T05:49:49;17.00;99.90
41344;DHT22;27089;50.022;7.604;2023-05-10T05:52:16;17.10;99.90
41344;DHT22;27089;50.022;7.604;2023-05-10T05:54:43;16.70;99.90
41344;DHT22;27089;50.022;7.604;2023-05-10T05:57:10;16.40;99.90
41344;DHT22;27089;50.022;7.604;2023-05-10T05:59:37;16.10;99.90
41344;DHT22;27089;50.022;7.604;2023-05-10T06:02:07;15.80;99.90
41344;DHT22;27089;50.022;7.604;2023-05-10T06:04:35;15.60;99.90
41344;DHT22;27089;50.022;7.604;2023-05-10T06:07:02;15.40;99.90
41344;DHT22;27089;50.022;7.604;2023-05-10T06:09:29;15.20;99.90
41344;DHT22;27089;50.022;7.604;2023-05-10T06:11:56;15.00;99.90
41344;DHT22;27089;50.022;7.604;2023-05-10T06:14:23;14.90;99.90
41344;DHT22;27089;50.022;7.604;2023-05-10T06:16:50;14.80;99.90
41344;DHT22;27089;50.022;7.604;2023-05-10T06:19:17;15.30;99.90
41344;DHT22;27089;50.022;7.604;2023-05-10T06:21:46;15.60;99.90
41344;DHT22;27089;50.022;7.604;2023-05-10T06:24:12;15.80;99.90
41344;DHT22;27089;50.022;7.604;2023-05-10T06:26:39;16.00;99.90
41344;DHT22;27089;50.022;7.604;2023-05-10T06:29:06;16.00;99.90
41344;DHT22;27089;50.022;7.604;2023-05-10T06:31:33;15.90;99.90
41344;DHT22;27089;50.022;7.604;2023-05-10T06:34:00;15.80;99.90
41344;DHT22;27089;50.022;7.604;2023-05-10T06:36:27;15.70;99.90
41344;DHT22;27089;50.022;7.604;2023-05-10T06:38:55;15.60;99.90
41344;DHT22;27089;50.022;7.604;2023-05-10T06:41:22;15.60;99.90
41344;DHT22;27089;50.022;7.604;2023-05-10T06:43:49;15.60;99.90
41344;DHT22;27089;50.022;7.604;2023-05-10T06:46:16;15.70;99.90
41344;DHT22;27089;50.022;7.604;2023-05-10T06:48:43;15.70;99.90
41344;DHT22;27089;50.022;7.604;2023-05-10T06:51:10;15.70;99.90
41344;DHT22;27089;50.022;7.604;2023-05-10T06:53:37;15.70;99.90
41344;DHT22;27089;50.022;7.604;2023-05-10T06:56:05;15.60;99.90
41344;DHT22;27089;50.022;7.604;2023-05-10T06:58:32;15.50;99.90
41344;DHT22;27089;50.022;7.604;2023-05-10T07:01:03;15.40;99.90
41344;DHT22;27089;50.022;7.604;2023-05-10T07:03:30;15.30;99.90
41344;DHT22;27089;50.022;7.604;2023-05-10T07:06:00;15.20;99.90
41344;DHT22;27089;50.022;7.604;2023-05-10T07:08:29;15.10;99.90
41344;DHT22;27089;50.022;7.604;2023-05-10T07:11:00;15.00;99.90
41344;DHT22;27089;50.022;7.604;2023-05-10T07:13:28;15.00;99.90
41344;DHT22;27089;50.022;7.604;2023-05-10T07:15:55;14.90;99.90
41344;DHT22;27089;50.022;7.604;2023-05-10T07:18:22;14.80;99.90
41344;DHT22;27089;50.022;7.604;2023-05-10T07:20:49;14.80;99.90
41344;DHT22;27089;50.022;7.604;2023-05-10T07:23:16;14.70;99.90
41344;DHT22;27089;50.022;7.604;2023-05-10T07:25:45;14.60;99.90
41344;DHT22;27089;50.022;7.604;2023-05-10T07:28:13;14.50;99.90
41344;DHT22;27089;50.022;7.604;2023-05-10T07:30:41;14.40;99.90
41344;DHT22;27089;50.022;7.604;2023-05-10T07:33:09;14.30;99.90
41344;DHT22;27089;50.022;7.604;2023-05-10T07:35:36;14.30;99.90
41344;DHT22;27089;50.022;7.604;2023-05-10T07:38:05;14.20;99.90
41344;DHT22;27089;50.022;7.604;2023-05-10T07:40:32;14.30;99.90
41344;DHT22;27089;50.022;7.604;2023-05-10T07:42:59;14.30;99.90
41344;DHT22;27089;50.022;7.604;2023-05-10T07:45:27;14.40;99.90
41344;DHT22;27089;50.022;7.604;2023-05-10T07:47:55;14.50;99.90
41344;DHT22;27089;50.022;7.604;2023-05-10T07:50:22;14.50;99.90
41344;DHT22;27089;50.022;7.604;2023-05-10T07:52:49;14.50;99.90
41344;DHT22;27089;50.022;7.604;2023-05-10T07:55:18;14.50;99.90
41344;DHT22;27089;50.022;7.604;2023-05-10T07:57:46;14.60;99.90
41344;DHT22;27089;50.022;7.604;2023-05-10T08:00:17;14.70;99.90
41344;DHT22;27089;50.022;7.604;2023-05-10T08:02:44;14.70;99.90
41344;DHT22;27089;50.022;7.604;2023-05-10T08:05:12;14.70;99.90
41344;DHT22;27089;50.022;7.604;2023-05-10T08:07:40;14.80;99.90
41344;DHT22;27089;50.022;7.604;2023-05-10T08:10:08;14.80;99.90
41344;DHT22;27089;50.022;7.604;2023-05-10T08:12:36;14.70;99.90
41344;DHT22;27089;50.022;7.604;2023-05-10T08:15:05;14.70;99.90
41344;DHT22;27089;50.022;7.604;2023-05-10T08:17:32;14.70;99.90
41344;DHT22;27089;50.022;7.604;2023-05-10T08:19:59;14.80;99.90
41344;DHT22;27089;50.022;7.604;2023-05-10T08:22:27;15.00;99.90
41344;DHT22;27089;50.022;7.604;2023-05-10T08:24:54;15.30;99.90
41344;DHT22;27089;50.022;7.604;2023-05-10T08:27:21;15.50;99.90
41344;DHT22;27089;50.022;7.604;2023-05-10T08:29:48;15.60;99.90
41344;DHT22;27089;50.022;7.604;2023-05-10T08:32:15;15.50;99.90
41344;DHT22;27089;50.022;7.604;2023-05-10T08:34:42;15.60;99.90
41344;DHT22;27089;50.022;7.604;2023-05-10T08:37:09;15.90;99.90
41344;DHT22;27089;50.022;7.604;2023-05-10T08:39:39;16.00;99.90
41344;DHT22;27089;50.022;7.604;2023-05-10T08:42:07;16.00;99.90
41344;DHT22;27089;50.022;7.604;2023-05-10T08:44:36;16.10;99.90
41344;DHT22;27089;50.022;7.604;2023-05-10T08:47:05;16.80;99.90
41344;DHT22;27089;50.022;7.604;2023-05-10T08:49:33;17.90;99.90
41344;DHT22;27089;50.022;7.604;2023-05-10T08:52:03;18.60;99.90
41344;DHT22;27089;50.022;7.604;2023-05-10T08:54:32;18.90;99.90
41344;DHT22;27089;50.022;7.604;2023-05-10T08:57:01;19.00;99.90
41344;DHT22;27089;50.022;7.604;2023-05-10T08:59:28;19.00;99.90
41344;DHT22;27089;50.022;7.604;2023-05-10T09:01:57;18.90;99.90
41344;DHT22;27089;50.022;7.604;2023-05-10T09:04:25;19.10;99.90
41344;DHT22;27089;50.022;7.604;2023-05-10T09:06:52;19.10;99.90
41344;DHT22;27089;50.022;7.604;2023-05-10T09:09:19;19.10;99.90
41344;DHT22;27089;50.022;7.604;2023-05-10T09:11:47;19.30;99.90
41344;DHT22;27089;50.022;7.604;2023-05-10T09:14:16;19.60;99.90
41344;DHT22;27089;50.022;7.604;2023-05-10T09:16:44;19.90;99.90
41344;DHT22;27089;50.022;7.604;2023-05-10T09:19:11;19.90;99.90
41344;DHT22;27089;50.022;7.604;2023-05-10T09:21:38;19.80;99.90
41344;DHT22;27089;50.022;7.604;2023-05-10T09:24:07;20.40;99.90
41344;DHT22;27089;50.022;7.604;2023-05-10T09:26:34;21.30;99.90
41344;DHT22;27089;50.022;7.604;2023-05-10T09:29:02;21.40;99.90
41344;DHT22;27089;50.022;7.604;2023-05-10T09:31:46;20.80;99.90
41344;DHT22;27089;50.022;7.604;2023-05-10T09:34:17;19.80;99.90
41344;DHT22;27089;50.022;7.604;2023-05-10T09:36:55;19.50;99.90
41344;DHT22;27089;50.022;7.604;2023-05-10T09:39:30;19.30;99.90
41344;DHT22;27089;50.022;7.604;2023-05-10T09:41:58;19.20;99.90
41344;DHT22;27089;50.022;7.604;2023-05-10T09:44:26;19.80;99.90
41344;DHT22;27089;50.022;7.604;2023-05-10T09:46:54;21.00;99.90
41344;DHT22;27089;50.022;7.604;2023-05-10T09:49:22;21.80;99.90
41344;DHT22;27089;50.022;7.604;2023-05-10T09:52:00;22.50;99.90
41344;DHT22;27089;50.022;7.604;2023-05-10T09:54:27;23.10;99.90
41344;DHT22;27089;50.022;7.604;2023-05-10T09:56:54;23.20;99.90
41344;DHT22;27089;50.022;7.604;2023-05-10T09:59:21;23.30;99.90
41344;DHT22;27089;50.022;7.604;2023-05-10T10:01:49;23.60;99.90
41344;DHT22;27089;50.022;7.604;2023-05-10T10:04:20;23.80;99.90
41344;DHT22;27089;50.022;7.604;2023-05-10T10:06:58;24.30;99.90
41344;DHT22;27089;50.022;7.604;2023-05-10T10:09:25;24.60;99.90
41344;DHT22;27089;50.022;7.604;2023-05-10T10:11:54;24.70;99.90
41344;DHT22;27089;50.022;7.604;2023-05-10T10:14:22;25.00;99.90
41344;DHT22;27089;50.022;7.604;2023-05-10T10:16:49;24.80;99.90
41344;DHT22;27089;50.022;7.604;2023-05-10T10:19:18;24.70;99.90
41344;DHT22;27089;50.022;7.604;2023-05-10T10:21:46;24.60;99.90
41344;DHT22;27089;50.022;7.604;2023-05-10T10:24:13;24.30;99.90
41344;DHT22;27089;50.022;7.604;2023-05-10T10:26:41;24.00;99.90
41344;DHT22;27089;50.022;7.604;2023-05-10T10:29:19;23.40;99.90
41344;DHT22;27089;50.022;7.604;2023-05-10T10:31:52;22.80;99.90
41344;DHT22;27089;50.022;7.604;2023-05-10T10:34:26;22.70;99.90
41344;DHT22;27089;50.022;7.604;2023-05-10T10:36:54;22.60;99.90
41344;DHT22;27089;50.022;7.604;2023-05-10T10:39:22;22.40;99.90
41344;DHT22;27089;50.022;7.604;2023-05-10T10:41:51;22.50;99.90
41344;DHT22;27089;50.022;7.604;2023-05-10T10:44:35;22.70;99.90
41344;DHT22;27089;50.022;7.604;2023-05-10T10:47:21;22.20;99.90
41344;DHT22;27089;50.022;7.604;2023-05-10T10:50:06;21.90;99.90
41344;DHT22;27089;50.022;7.604;2023-05-10T10:52:34;21.60;99.90
41344;DHT22;27089;50.022;7.604;2023-05-10T10:55:04;21.60;99.90
41344;DHT22;27089;50.022;7.604;2023-05-10T10:57:33;21.80;99.90
41344;DHT22;27089;50.022;7.604;2023-05-10T11:00:25;21.90;99.90
41344;DHT22;27089;50.022;7.604;2023-05-10T11:02:56;21.80;99.90
41344;DHT22;27089;50.022;7.604;2023-05-10T11:08:16;21.10;99.90
41344;DHT22;27089;50.022;7.604;2023-05-10T11:11:04;20.70;99.90
41344;DHT22;27089;50.022;7.604;2023-05-10T11:13:34;20.30;99.90
41344;DHT22;27089;50.022;7.604;2023-05-10T11:16:15;20.00;99.90
41344;DHT22;27089;50.022;7.604;2023-05-10T11:18:54;19.70;99.90
41344;DHT22;27089;50.022;7.604;2023-05-10T11:21:22;19.70;99.90
41344;DHT22;27089;50.022;7.604;2023-05-10T11:23:50;19.60;99.90
41344;DHT22;27089;50.022;7.604;2023-05-10T11:26:17;19.70;99.90
41344;DHT22;27089;50.022;7.604;2023-05-10T11:28:49;19.90;99.90
41344;DHT22;27089;50.022;7.604;2023-05-10T11:31:17;20.10;99.90
41344;DHT22;27089;50.022;7.604;2023-05-10T11:33:44;20.20;99.90
41344;DHT22;27089;50.022;7.604;2023-05-10T11:36:12;20.40;99.90
41344;DHT22;27089;50.022;7.604;2023-05-10T11:38:40;20.40;99.90
41344;DHT22;27089;50.022;7.604;2023-05-10T11:41:09;20.30;99.90
41344;DHT22;27089;50.022;7.604;2023-05-10T11:43:37;20.10;99.90
41344;DHT22;27089;50.022;7.604;2023-05-10T11:46:05;19.80;99.90
41344;DHT22;27089;50.022;7.604;2023-05-10T11:48:32;19.40;99.90
41344;DHT22;27089;50.022;7.604;2023-05-10T11:51:01;19.00;99.90
41344;DHT22;27089;50.022;7.604;2023-05-10T11:53:29;18.70;99.90
41344;DHT22;27089;50.022;7.604;2023-05-10T11:56:02;18.40;99.90
41344;DHT22;27089;50.022;7.604;2023-05-10T11:58:30;18.30;99.90
41344;DHT22;27089;50.022;7.604;2023-05-10T12:00:58;18.10;99.90
41344;DHT22;27089;50.022;7.604;2023-05-10T12:03:25;18.00;99.90
41344;DHT22;27089;50.022;7.604;2023-05-10T12:05:52;17.90;99.90
41344;DHT22;27089;50.022;7.604;2023-05-10T12:08:22;17.90;99.90
41344;DHT22;27089;50.022;7.604;2023-05-10T12:10:49;17.80;99.90
41344;DHT22;27089;50.022;7.604;2023-05-10T12:13:19;17.70;99.90
41344;DHT22;27089;50.022;7.604;2023-05-10T12:15:46;17.80;99.90
41344;DHT22;27089;50.022;7.604;2023-05-10T12:18:14;17.90;99.90
41344;DHT22;27089;50.022;7.604;2023-05-10T12:20:41;18.00;99.90
41344;DHT22;27089;50.022;7.604;2023-05-10T12:23:09;18.10;99.90
41344;DHT22;27089;50.022;7.604;2023-05-10T12:25:37;18.30;99.90
41344;DHT22;27089;50.022;7.604;2023-05-10T12:28:06;18.40;99.90
41344;DHT22;27089;50.022;7.604;2023-05-10T12:30:35;18.60;99.90
41344;DHT22;27089;50.022;7.604;2023-05-10T12:33:07;19.10;99.90
41344;DHT22;27089;50.022;7.604;2023-05-10T12:35:44;19.40;99.90
41344;DHT22;27089;50.022;7.604;2023-05-10T12:38:27;19.80;99.90
41344;DHT22;27089;50.022;7.604;2023-05-10T12:40:56;20.30;99.90
41344;DHT22;27089;50.022;7.604;2023-05-10T12:43:23;20.50;99.90
41344;DHT22;27089;50.022;7.604;2023-05-10T12:45:51;20.70;99.90
41344;DHT22;27089;50.022;7.604;2023-05-10T12:48:18;20.80;99.90
41344;DHT22;27089;50.022;7.604;2023-05-10T12:50:45;20.80;99.90
41344;DHT22;27089;50.022;7.604;2023-05-10T12:53:13;20.60;99.90
41344;DHT22;27089;50.022;7.604;2023-05-10T12:55:41;20.50;99.90
41344;DHT22;27089;50.022;7.604;2023-05-10T12:58:08;20.50;99.90
41344;DHT22;27089;50.022;7.604;2023-05-10T13:00:34;20.60;99.90
41344;DHT22;27089;50.022;7.604;2023-05-10T13:03:05;20.70;99.90
41344;DHT22;27089;50.022;7.604;2023-05-10T13:05:32;20.90;99.90
41344;DHT22;27089;50.022;7.604;2023-05-10T13:07:59;21.00;99.90
41344;DHT22;27089;50.022;7.604;2023-05-10T13:10:26;21.10;99.90
41344;DHT22;27089;50.022;7.604;2023-05-10T13:12:53;21.00;99.90
41344;DHT22;27089;50.022;7.604;2023-05-10T13:15:20;21.00;99.90
41344;DHT22;27089;50.022;7.604;2023-05-10T13:17:47;21.10;99.90
41344;DHT22;27089;50.022;7.604;2023-05-10T13:20:15;21.30;99.90
41344;DHT22;27089;50.022;7.604;2023-05-10T13:22:43;21.40;99.90
41344;DHT22;27089;50.022;7.604;2023-05-10T13:25:10;21.70;99.90
41344;DHT22;27089;50.022;7.604;2023-05-10T13:27:39;21.90;99.90
41344;DHT22;27089;50.022;7.604;2023-05-10T13:30:07;22.10;99.90
41344;DHT22;27089;50.022;7.604;2023-05-10T13:32:34;22.00;99.90
41344;DHT22;27089;50.022;7.604;2023-05-10T13:35:01;21.80;99.90
41344;DHT22;27089;50.022;7.604;2023-05-10T13:37:30;21.80;99.90
41344;DHT22;27089;50.022;7.604;2023-05-10T13:39:57;21.90;99.90
41344;DHT22;27089;50.022;7.604;2023-05-10T13:42:24;22.00;99.90
41344;DHT22;27089;50.022;7.604;2023-05-10T13:44:51;22.20;99.90
41344;DHT22;27089;50.022;7.604;2023-05-10T13:47:18;22.30;99.90
41344;DHT22;27089;50.022;7.604;2023-05-10T13:49:47;22.10;99.90
41344;DHT22;27089;50.022;7.604;2023-05-10T13:52:14;21.80;99.90
41344;DHT22;27089;50.022;7.604;2023-05-10T13:54:42;21.70;99.90
41344;DHT22;27089;50.022;7.604;2023-05-10T13:57:09;21.50;99.90
41344;DHT22;27089;50.022;7.604;2023-05-10T13:59:38;21.00;99.90
41344;DHT22;27089;50.022;7.604;2023-05-10T14:02:05;20.70;99.90
41344;DHT22;27089;50.022;7.604;2023-05-10T14:04:32;20.50;99.90
41344;DHT22;27089;50.022;7.604;2023-05-10T14:07:01;20.60;99.90
41344;DHT22;27089;50.022;7.604;2023-05-10T14:09:27;20.80;99.90
41344;DHT22;27089;50.022;7.604;2023-05-10T14:11:57;20.90;99.90
41344;DHT22;27089;50.022;7.604;2023-05-10T14:14:24;20.90;99.90
41344;DHT22;27089;50.022;7.604;2023-05-10T14:16:51;20.90;99.90
41344;DHT22;27089;50.022;7.604;2023-05-10T14:19:18;20.80;99.90
41344;DHT22;27089;50.022;7.604;2023-05-10T14:21:45;20.70;99.90
41344;DHT22;27089;50.022;7.604;2023-05-10T14:24:12;20.50;99.90
41344;DHT22;27089;50.022;7.604;2023-05-10T14:26:39;20.20;99.90
41344;DHT22;27089;50.022;7.604;2023-05-10T14:29:07;20.30;99.90
41344;DHT22;27089;50.022;7.604;2023-05-10T14:31:34;20.60;99.90
41344;DHT22;27089;50.022;7.604;2023-05-10T14:34:01;20.80;99.90
41344;DHT22;27089;50.022;7.604;2023-05-10T14:36:28;20.90;99.90
41344;DHT22;27089;50.022;7.604;2023-05-10T14:38:55;21.00;99.90
41344;DHT22;27089;50.022;7.604;2023-05-10T14:41:22;20.90;99.90
41344;DHT22;27089;50.022;7.604;2023-05-10T14:43:50;20.80;99.90
41344;DHT22;27089;50.022;7.604;2023-05-10T14:46:18;20.60;99.90
41344;DHT22;27089;50.022;7.604;2023-05-10T14:48:45;20.60;99.90
41344;DHT22;27089;50.022;7.604;2023-05-10T14:51:12;20.60;99.90
41344;DHT22;27089;50.022;7.604;2023-05-10T14:53:39;20.50;99.90
41344;DHT22;27089;50.022;7.604;2023-05-10T14:56:06;20.20;99.90
41344;DHT22;27089;50.022;7.604;2023-05-10T14:58:33;19.90;99.90
41344;DHT22;27089;50.022;7.604;2023-05-10T15:01:00;19.60;99.90
41344;DHT22;27089;50.022;7.604;2023-05-10T15:03:29;19.40;99.90
41344;DHT22;27089;50.022;7.604;2023-05-10T15:05:56;19.30;99.90
41344;DHT22;27089;50.022;7.604;2023-05-10T15:08:24;19.20;99.90
41344;DHT22;27089;50.022;7.604;2023-05-10T15:10:51;19.20;99.90
41344;DHT22;27089;50.022;7.604;2023-05-10T15:13:20;19.20;99.90
41344;DHT22;27089;50.022;7.604;2023-05-10T15:15:47;19.30;99.90
41344;DHT22;27089;50.022;7.604;2023-05-10T15:18:14;19.40;99.90
41344;DHT22;27089;50.022;7.604;2023-05-10T15:20:43;19.50;99.90
41344;DHT22;27089;50.022;7.604;2023-05-10T15:23:10;19.70;99.90
41344;DHT22;27089;50.022;7.604;2023-05-10T15:25:36;19.70;99.90
41344;DHT22;27089;50.022;7.604;2023-05-10T15:28:04;19.70;99.90
41344;DHT22;27089;50.022;7.604;2023-05-10T15:30:31;19.60;99.90
41344;DHT22;27089;50.022;7.604;2023-05-10T15:32:58;19.50;99.90
41344;DHT22;27089;50.022;7.604;2023-05-10T15:35:25;19.20;99.90
41344;DHT22;27089;50.022;7.604;2023-05-10T15:37:54;19.00;99.90
41344;DHT22;27089;50.022;7.604;2023-05-10T15:40:21;18.90;99.90
41344;DHT22;27089;50.022;7.604;2023-05-10T15:42:48;18.60;99.90
41344;DHT22;27089;50.022;7.604;2023-05-10T15:45:15;18.40;99.90
41344;DHT22;27089;50.022;7.604;2023-05-10T15:47:42;18.30;99.90